sensor_id;sensor_type;location;lat;lon;timestamp;temperature;humidity
254;DHT22;590;48.772;8.846;2022-12-10T00:01:27;1.80;99.90
254;DHT22;590;48.772;8.846;2022-12-10T00:03:55;1.80;99.90
254;DHT22;590;48.772;8.846;2022-12-10T00:06:26;1.90;99.90
254;DHT22;590;48.772;8.846;2022-12-10T00:08:55;1.90;99.90
254;DHT22;590;48.772;8.846;2022-12-10T00:11:23;1.80;99.90
254;DHT22;590;48.772;8.846;2022-12-10T00:13:52;1.80;99.90
254;DHT22;590;48.772;8.846;2022-12-10T00:16:24;1.80;99.90
254;DHT22;590;48.772;8.846;2022-12-10T00:18:53;1.80;99.90
254;DHT22;590;48.772;8.846;2022-12-10T00:21:25;1.90;99.90
254;DHT22;590;48.772;8.846;2022-12-10T00:23:53;1.90;99.90
254;DHT22;590;48.772;8.846;2022-12-10T00:26:24;1.90;99.90
254;DHT22;590;48.772;8.846;2022-12-10T00:28:53;1.80;99.90
254;DHT22;590;48.772;8.846;2022-12-10T00:31:25;1.90;99.90
254;DHT22;590;48.772;8.846;2022-12-10T00:33:54;1.90;99.90
254;DHT22;590;48.772;8.846;2022-12-10T00:36:24;1.90;99.90
254;DHT22;590;48.772;8.846;2022-12-10T00:38:53;1.90;99.90
254;DHT22;590;48.772;8.846;2022-12-10T00:41:21;1.90;99.90
254;DHT22;590;48.772;8.846;2022-12-10T00:43:50;1.90;99.90
254;DHT22;590;48.772;8.846;2022-12-10T00:46:18;1.90;99.90
254;DHT22;590;48.772;8.846;2022-12-10T00:48:48;1.90;99.90
254;DHT22;590;48.772;8.846;2022-12-10T00:51:18;1.90;99.90
254;DHT22;590;48.772;8.846;2022-12-10T00:53:49;1.90;99.90
254;DHT22;590;48.772;8.846;2022-12-10T00:56:18;1.90;99.90
254;DHT22;590;48.772;8.846;2022-12-10T00:58:47;1.90;99.90
254;DHT22;590;48.772;8.846;2022-12-10T01:01:18;1.90;99.90
254;DHT22;590;48.772;8.846;2022-12-10T01:03:50;1.80;99.90
254;DHT22;590;48.772;8.846;2022-12-10T01:06:20;1.90;99.90
254;DHT22;590;48.772;8.846;2022-12-10T01:08:49;1.80;99.90
254;DHT22;590;48.772;8.846;2022-12-10T01:11:20;1.90;99.90
254;DHT22;590;48.772;8.846;2022-12-10T01:13:49;1.90;99.90
254;DHT22;590;48.772;8.846;2022-12-10T01:16:18;1.90;99.90
254;DHT22;590;48.772;8.846;2022-12-10T01:18:48;1.90;99.90
254;DHT22;590;48.772;8.846;2022-12-10T01:21:18;1.90;99.90
254;DHT22;590;48.772;8.846;2022-12-10T01:23:48;1.90;99.90
254;DHT22;590;48.772;8.846;2022-12-10T01:26:18;1.90;99.90
254;DHT22;590;48.772;8.846;2022-12-10T01:28:46;1.80;99.90
254;DHT22;590;48.772;8.846;2022-12-10T01:31:18;1.80;99.90
254;DHT22;590;48.772;8.846;2022-12-10T01:33:48;1.80;99.90
254;DHT22;590;48.772;8.846;2022-12-10T01:36:18;1.80;99.90
254;DHT22;590;48.772;8.846;2022-12-10T01:38:46;1.80;99.90
254;DHT22;590;48.772;8.846;2022-12-10T01:41:16;1.80;99.90
254;DHT22;590;48.772;8.846;2022-12-10T01:43:51;1.80;99.90
254;DHT22;590;48.772;8.846;2022-12-10T01:46:19;1.80;99.90
254;DHT22;590;48.772;8.846;2022-12-10T01:48:49;1.80;99.90
254;DHT22;590;48.772;8.846;2022-12-10T01:51:18;1.70;99.90
254;DHT22;590;48.772;8.846;2022-12-10T01:53:46;1.80;99.90
254;DHT22;590;48.772;8.846;2022-12-10T01:56:16;1.70;99.90
254;DHT22;590;48.772;8.846;2022-12-10T01:58:45;1.70;99.90
254;DHT22;590;48.772;8.846;2022-12-10T02:01:21;1.70;99.90
254;DHT22;590;48.772;8.846;2022-12-10T02:04:04;1.70;99.90
254;DHT22;590;48.772;8.846;2022-12-10T02:06:48;1.70;99.90
254;DHT22;590;48.772;8.846;2022-12-10T02:09:27;1.70;99.90
254;DHT22;590;48.772;8.846;2022-12-10T02:12:16;1.70;99.90
254;DHT22;590;48.772;8.846;2022-12-10T02:14:51;1.70;99.90
254;DHT22;590;48.772;8.846;2022-12-10T02:17:24;1.70;99.90
254;DHT22;590;48.772;8.846;2022-12-10T02:20:03;1.70;99.90
254;DHT22;590;48.772;8.846;2022-12-10T02:22:38;1.70;99.90
254;DHT22;590;48.772;8.846;2022-12-10T02:25:09;1.70;99.90
254;DHT22;590;48.772;8.846;2022-12-10T02:27:44;1.70;99.90
254;DHT22;590;48.772;8.846;2022-12-10T02:30:15;1.70;99.90
254;DHT22;590;48.772;8.846;2022-12-10T02:32:44;1.70;99.90
254;DHT22;590;48.772;8.846;2022-12-10T02:35:16;1.70;99.90
254;DHT22;590;48.772;8.846;2022-12-10T02:37:49;1.60;99.90
254;DHT22;590;48.772;8.846;2022-12-10T02:40:22;1.60;99.90
254;DHT22;590;48.772;8.846;2022-12-10T02:42:51;1.60;99.90
254;DHT22;590;48.772;8.846;2022-12-10T02:45:23;1.60;99.90
254;DHT22;590;48.772;8.846;2022-12-10T02:47:55;1.60;99.90
254;DHT22;590;48.772;8.846;2022-12-10T02:50:25;1.60;99.90
254;DHT22;590;48.772;8.846;2022-12-10T02:52:53;1.60;99.90
254;DHT22;590;48.772;8.846;2022-12-10T02:55:21;1.60;99.90
254;DHT22;590;48.772;8.846;2022-12-10T02:58:00;1.60;99.90
254;DHT22;590;48.772;8.846;2022-12-10T03:00:35;1.60;99.90
254;DHT22;590;48.772;8.846;2022-12-10T03:03:15;1.60;99.90
254;DHT22;590;48.772;8.846;2022-12-10T03:05:47;1.70;99.90
254;DHT22;590;48.772;8.846;2022-12-10T03:08:22;1.70;99.90
254;DHT22;590;48.772;8.846;2022-12-10T03:10:56;1.70;99.90
254;DHT22;590;48.772;8.846;2022-12-10T03:13:30;1.70;99.90
254;DHT22;590;48.772;8.846;2022-12-10T03:16:02;1.80;99.90
254;DHT22;590;48.772;8.846;2022-12-10T03:18:34;1.80;99.90
254;DHT22;590;48.772;8.846;2022-12-10T03:21:05;1.80;99.90
254;DHT22;590;48.772;8.846;2022-12-10T03:23:36;1.80;99.90
254;DHT22;590;48.772;8.846;2022-12-10T03:26:05;1.70;99.90
254;DHT22;590;48.772;8.846;2022-12-10T03:28:39;1.70;99.90
254;DHT22;590;48.772;8.846;2022-12-10T03:31:12;1.70;99.90
254;DHT22;590;48.772;8.846;2022-12-10T03:33:41;1.70;99.90
254;DHT22;590;48.772;8.846;2022-12-10T03:36:11;1.70;99.90
254;DHT22;590;48.772;8.846;2022-12-10T03:38:40;1.70;99.90
254;DHT22;590;48.772;8.846;2022-12-10T03:41:09;1.70;99.90
254;DHT22;590;48.772;8.846;2022-12-10T03:43:50;1.70;99.90
254;DHT22;590;48.772;8.846;2022-12-10T03:46:20;1.70;99.90
254;DHT22;590;48.772;8.846;2022-12-10T03:48:49;1.70;99.90
254;DHT22;590;48.772;8.846;2022-12-10T03:51:17;1.70;99.90
254;DHT22;590;48.772;8.846;2022-12-10T03:53:46;1.80;99.90
254;DHT22;590;48.772;8.846;2022-12-10T03:56:15;1.80;99.90
254;DHT22;590;48.772;8.846;2022-12-10T03:58:43;1.80;99.90
254;DHT22;590;48.772;8.846;2022-12-10T04:01:11;1.70;99.90
254;DHT22;590;48.772;8.846;2022-12-10T04:03:41;1.70;99.90
254;DHT22;590;48.772;8.846;2022-12-10T04:06:12;1.70;99.90
254;DHT22;590;48.772;8.846;2022-12-10T04:08:41;1.70;99.90
254;DHT22;590;48.772;8.846;2022-12-10T04:11:10;1.70;99.90
254;DHT22;590;48.772;8.846;2022-12-10T04:13:39;1.70;99.90
254;DHT22;590;48.772;8.846;2022-12-10T04:16:25;1.70;99.90
254;DHT22;590;48.772;8.846;2022-12-10T04:18:59;1.60;99.90
254;DHT22;590;48.772;8.846;2022-12-10T04:21:29;1.60;99.90
254;DHT22;590;48.772;8.846;2022-12-10T04:24:16;1.60;99.90
254;DHT22;590;48.772;8.846;2022-12-10T04:27:17;1.60;99.90
254;DHT22;590;48.772;8.846;2022-12-10T04:29:46;1.60;99.90
254;DHT22;590;48.772;8.846;2022-12-10T04:32:15;1.60;99.90
254;DHT22;590;48.772;8.846;2022-12-10T04:34:44;1.60;99.90
254;DHT22;590;48.772;8.846;2022-12-10T04:37:13;1.60;99.90
254;DHT22;590;48.772;8.846;2022-12-10T04:39:41;1.60;99.90
254;DHT22;590;48.772;8.846;2022-12-10T04:42:10;1.60;99.90
254;DHT22;590;48.772;8.846;2022-12-10T04:44:38;1.60;99.90
254;DHT22;590;48.772;8.846;2022-12-10T04:47:08;1.50;99.90
254;DHT22;590;48.772;8.846;2022-12-10T04:49:37;1.50;99.90
254;DHT22;590;48.772;8.846;2022-12-10T04:52:07;1.50;99.90
254;DHT22;590;48.772;8.846;2022-12-10T04:54:36;1.50;99.90
254;DHT22;590;48.772;8.846;2022-12-10T04:57:05;1.50;99.90
254;DHT22;590;48.772;8.846;2022-12-10T04:59:34;1.50;99.90
254;DHT22;590;48.772;8.846;2022-12-10T05:02:03;1.40;99.90
254;DHT22;590;48.772;8.846;2022-12-10T05:04:31;1.40;99.90
254;DHT22;590;48.772;8.846;2022-12-10T05:06:59;1.50;99.90
254;DHT22;590;48.772;8.846;2022-12-10T05:09:29;1.50;99.90
254;DHT22;590;48.772;8.846;2022-12-10T05:11:57;1.50;99.90
254;DHT22;590;48.772;8.846;2022-12-10T05:14:25;1.50;99.90
254;DHT22;590;48.772;8.846;2022-12-10T05:16:53;1.40;99.90
254;DHT22;590;48.772;8.846;2022-12-10T05:19:21;1.40;99.90
254;DHT22;590;48.772;8.846;2022-12-10T05:21:50;1.40;99.90
254;DHT22;590;48.772;8.846;2022-12-10T05:24:37;1.40;99.90
254;DHT22;590;48.772;8.846;2022-12-10T05:27:05;1.40;99.90
254;DHT22;590;48.772;8.846;2022-12-10T05:29:33;1.40;99.90
254;DHT22;590;48.772;8.846;2022-12-10T05:32:03;1.40;99.90
254;DHT22;590;48.772;8.846;2022-12-10T05:34:31;1.40;99.90
254;DHT22;590;48.772;8.846;2022-12-10T05:36:59;1.40;99.90
254;DHT22;590;48.772;8.846;2022-12-10T05:39:27;1.50;99.90
254;DHT22;590;48.772;8.846;2022-12-10T05:41:56;1.40;99.90
254;DHT22;590;48.772;8.846;2022-12-10T05:44:24;1.50;99.90
254;DHT22;590;48.772;8.846;2022-12-10T05:46:52;1.50;99.90
254;DHT22;590;48.772;8.846;2022-12-10T05:49:20;1.40;99.90
254;DHT22;590;48.772;8.846;2022-12-10T05:51:49;1.40;99.90
254;DHT22;590;48.772;8.846;2022-12-10T05:54:17;1.40;99.90
254;DHT22;590;48.772;8.846;2022-12-10T05:56:44;1.30;99.90
254;DHT22;590;48.772;8.846;2022-12-10T05:59:14;1.30;99.90
254;DHT22;590;48.772;8.846;2022-12-10T06:01:43;1.30;99.90
254;DHT22;590;48.772;8.846;2022-12-10T06:04:11;1.30;99.90
254;DHT22;590;48.772;8.846;2022-12-10T06:06:40;1.30;99.90
254;DHT22;590;48.772;8.846;2022-12-10T06:09:11;1.30;99.90
254;DHT22;590;48.772;8.846;2022-12-10T06:11:40;1.30;99.90
254;DHT22;590;48.772;8.846;2022-12-10T06:14:08;1.30;99.90
254;DHT22;590;48.772;8.846;2022-12-10T06:16:39;1.30;99.90
254;DHT22;590;48.772;8.846;2022-12-10T06:19:08;1.30;99.90
254;DHT22;590;48.772;8.846;2022-12-10T06:21:37;1.30;99.90
254;DHT22;590;48.772;8.846;2022-12-10T06:24:05;1.30;99.90
254;DHT22;590;48.772;8.846;2022-12-10T06:26:33;1.30;99.90
254;DHT22;590;48.772;8.846;2022-12-10T06:29:01;1.30;99.90
254;DHT22;590;48.772;8.846;2022-12-10T06:31:31;1.30;99.90
254;DHT22;590;48.772;8.846;2022-12-10T06:34:00;1.30;99.90
254;DHT22;590;48.772;8.846;2022-12-10T06:36:29;1.30;99.90
254;DHT22;590;48.772;8.846;2022-12-10T06:38:57;1.30;99.90
254;DHT22;590;48.772;8.846;2022-12-10T06:41:25;1.20;99.90
254;DHT22;590;48.772;8.846;2022-12-10T06:43:53;1.30;99.90
254;DHT22;590;48.772;8.846;2022-12-10T06:46:25;1.30;99.90
254;DHT22;590;48.772;8.846;2022-12-10T06:48:54;1.30;99.90
254;DHT22;590;48.772;8.846;2022-12-10T06:51:23;1.30;99.90
254;DHT22;590;48.772;8.846;2022-12-10T06:53:51;1.30;99.90
254;DHT22;590;48.772;8.846;2022-12-10T06:56:20;1.40;99.90
254;DHT22;590;48.772;8.846;2022-12-10T06:58:48;1.40;99.90
254;DHT22;590;48.772;8.846;2022-12-10T07:01:18;1.40;99.90
254;DHT22;590;48.772;8.846;2022-12-10T07:03:48;1.40;99.90
254;DHT22;590;48.772;8.846;2022-12-10T07:06:16;1.40;99.90
254;DHT22;590;48.772;8.846;2022-12-10T07:08:46;1.40;99.90
254;DHT22;590;48.772;8.846;2022-12-10T07:11:17;1.40;99.90
254;DHT22;590;48.772;8.846;2022-12-10T07:13:45;1.40;99.90
254;DHT22;590;48.772;8.846;2022-12-10T07:16:14;1.40;99.90
254;DHT22;590;48.772;8.846;2022-12-10T07:18:42;1.40;99.90
254;DHT22;590;48.772;8.846;2022-12-10T07:21:19;1.40;99.90
254;DHT22;590;48.772;8.846;2022-12-10T07:23:49;1.50;99.90
254;DHT22;590;48.772;8.846;2022-12-10T07:26:17;1.50;99.90
254;DHT22;590;48.772;8.846;2022-12-10T07:28:46;1.50;99.90
254;DHT22;590;48.772;8.846;2022-12-10T07:31:20;1.50;99.90
254;DHT22;590;48.772;8.846;2022-12-10T07:33:50;1.50;99.90
254;DHT22;590;48.772;8.846;2022-12-10T07:36:19;1.50;99.90
254;DHT22;590;48.772;8.846;2022-12-10T07:38:51;1.50;99.90
254;DHT22;590;48.772;8.846;2022-12-10T07:41:19;1.50;99.90
254;DHT22;590;48.772;8.846;2022-12-10T07:43:47;1.50;99.90
254;DHT22;590;48.772;8.846;2022-12-10T07:46:17;1.50;99.90
254;DHT22;590;48.772;8.846;2022-12-10T07:48:46;1.50;99.90
254;DHT22;590;48.772;8.846;2022-12-10T07:51:16;1.40;99.90
254;DHT22;590;48.772;8.846;2022-12-10T07:53:45;1.50;99.90
254;DHT22;590;48.772;8.846;2022-12-10T07:56:14;1.50;99.90
254;DHT22;590;48.772;8.846;2022-12-10T07:58:43;1.50;99.90
254;DHT22;590;48.772;8.846;2022-12-10T08:01:14;1.60;99.90
254;DHT22;590;48.772;8.846;2022-12-10T08:03:42;1.60;99.90
254;DHT22;590;48.772;8.846;2022-12-10T08:06:13;1.60;99.90
254;DHT22;590;48.772;8.846;2022-12-10T08:08:43;1.60;99.90
254;DHT22;590;48.772;8.846;2022-12-10T08:11:14;1.60;99.90
254;DHT22;590;48.772;8.846;2022-12-10T08:13:43;1.70;99.90
254;DHT22;590;48.772;8.846;2022-12-10T08:16:13;1.60;99.90
254;DHT22;590;48.772;8.846;2022-12-10T08:18:43;1.60;99.90
254;DHT22;590;48.772;8.846;2022-12-10T08:21:13;1.60;99.90
254;DHT22;590;48.772;8.846;2022-12-10T08:23:42;1.70;99.90
254;DHT22;590;48.772;8.846;2022-12-10T08:26:12;1.70;99.90
254;DHT22;590;48.772;8.846;2022-12-10T08:28:43;1.70;99.90
254;DHT22;590;48.772;8.846;2022-12-10T08:31:12;1.70;99.90
254;DHT22;590;48.772;8.846;2022-12-10T08:33:41;1.70;99.90
254;DHT22;590;48.772;8.846;2022-12-10T08:36:11;1.70;99.90
254;DHT22;590;48.772;8.846;2022-12-10T08:38:40;1.70;99.90
254;DHT22;590;48.772;8.846;2022-12-10T08:41:09;1.80;99.90
254;DHT22;590;48.772;8.846;2022-12-10T08:43:38;1.80;99.90
254;DHT22;590;48.772;8.846;2022-12-10T08:46:07;1.80;99.90
254;DHT22;590;48.772;8.846;2022-12-10T08:48:37;1.90;99.90
254;DHT22;590;48.772;8.846;2022-12-10T08:51:06;1.90;99.90
254;DHT22;590;48.772;8.846;2022-12-10T08:53:35;1.90;99.90
254;DHT22;590;48.772;8.846;2022-12-10T08:56:03;1.90;99.90
254;DHT22;590;48.772;8.846;2022-12-10T08:58:31;1.90;99.90
254;DHT22;590;48.772;8.846;2022-12-10T09:00:59;1.90;99.90
254;DHT22;590;48.772;8.846;2022-12-10T09:03:35;1.90;99.90
254;DHT22;590;48.772;8.846;2022-12-10T09:06:04;1.80;99.90
254;DHT22;590;48.772;8.846;2022-12-10T09:08:33;1.80;99.90
254;DHT22;590;48.772;8.846;2022-12-10T09:11:05;1.80;99.90
254;DHT22;590;48.772;8.846;2022-12-10T09:13:33;1.80;99.90
254;DHT22;590;48.772;8.846;2022-12-10T09:16:01;1.70;99.90
254;DHT22;590;48.772;8.846;2022-12-10T09:18:29;1.80;99.90
254;DHT22;590;48.772;8.846;2022-12-10T09:20:59;1.80;99.90
254;DHT22;590;48.772;8.846;2022-12-10T09:23:27;1.70;99.90
254;DHT22;590;48.772;8.846;2022-12-10T09:25:55;1.80;99.90
254;DHT22;590;48.772;8.846;2022-12-10T09:28:23;1.80;99.90
254;DHT22;590;48.772;8.846;2022-12-10T09:30:55;1.80;99.90
254;DHT22;590;48.772;8.846;2022-12-10T09:33:23;1.80;99.90
254;DHT22;590;48.772;8.846;2022-12-10T09:35:51;1.90;99.90
254;DHT22;590;48.772;8.846;2022-12-10T09:38:21;1.90;99.90
254;DHT22;590;48.772;8.846;2022-12-10T09:40:54;1.90;99.90
254;DHT22;590;48.772;8.846;2022-12-10T09:43:32;1.90;99.90
254;DHT22;590;48.772;8.846;2022-12-10T09:46:13;1.90;99.90
254;DHT22;590;48.772;8.846;2022-12-10T09:48:55;2.00;99.90
254;DHT22;590;48.772;8.846;2022-12-10T09:51:26;2.00;99.90
254;DHT22;590;48.772;8.846;2022-12-10T09:53:57;2.00;99.90
254;DHT22;590;48.772;8.846;2022-12-10T09:56:29;2.10;99.90
254;DHT22;590;48.772;8.846;2022-12-10T09:59:02;2.10;99.90
254;DHT22;590;48.772;8.846;2022-12-10T10:01:32;2.00;99.90
254;DHT22;590;48.772;8.846;2022-12-10T10:04:03;2.00;99.90
254;DHT22;590;48.772;8.846;2022-12-10T10:06:32;2.00;99.90
254;DHT22;590;48.772;8.846;2022-12-10T10:09:03;2.00;99.90
254;DHT22;590;48.772;8.846;2022-12-10T10:11:34;2.10;99.90
254;DHT22;590;48.772;8.846;2022-12-10T10:14:05;2.10;99.90
254;DHT22;590;48.772;8.846;2022-12-10T10:16:43;2.10;99.90
254;DHT22;590;48.772;8.846;2022-12-10T10:19:14;2.10;99.90
254;DHT22;590;48.772;8.846;2022-12-10T10:21:45;2.20;99.90
254;DHT22;590;48.772;8.846;2022-12-10T10:24:17;2.20;99.90
254;DHT22;590;48.772;8.846;2022-12-10T10:26:46;2.20;99.90
254;DHT22;590;48.772;8.846;2022-12-10T10:29:17;2.20;99.90
254;DHT22;590;48.772;8.846;2022-12-10T10:31:46;2.20;99.90
254;DHT22;590;48.772;8.846;2022-12-10T10:34:18;2.20;99.90
254;DHT22;590;48.772;8.846;2022-12-10T10:36:46;2.20;99.90
254;DHT22;590;48.772;8.846;2022-12-10T10:39:25;2.20;99.90
254;DHT22;590;48.772;8.846;2022-12-10T10:41:56;2.20;99.90
254;DHT22;590;48.772;8.846;2022-12-10T10:44:28;2.20;99.90
254;DHT22;590;48.772;8.846;2022-12-10T10:47:01;2.20;99.90
254;DHT22;590;48.772;8.846;2022-12-10T10:49:31;2.20;99.90
254;DHT22;590;48.772;8.846;2022-12-10T10:52:04;2.30;99.90
254;DHT22;590;48.772;8.846;2022-12-10T10:54:38;2.30;99.90
254;DHT22;590;48.772;8.846;2022-12-10T10:57:12;2.30;99.90
254;DHT22;590;48.772;8.846;2022-12-10T10:59:43;2.30;99.90
254;DHT22;590;48.772;8.846;2022-12-10T11:02:20;2.30;99.90
254;DHT22;590;48.772;8.846;2022-12-10T11:04:50;2.40;99.90
254;DHT22;590;48.772;8.846;2022-12-10T11:07:22;2.30;99.90
254;DHT22;590;48.772;8.846;2022-12-10T11:09:54;2.40;99.90
254;DHT22;590;48.772;8.846;2022-12-10T11:12:29;2.40;99.90
254;DHT22;590;48.772;8.846;2022-12-10T11:15:31;2.50;99.90
254;DHT22;590;48.772;8.846;2022-12-10T11:18:00;2.40;99.90
254;DHT22;590;48.772;8.846;2022-12-10T11:20:30;2.40;99.90
254;DHT22;590;48.772;8.846;2022-12-10T11:23:09;2.40;99.90
254;DHT22;590;48.772;8.846;2022-12-10T11:25:53;2.40;99.90
254;DHT22;590;48.772;8.846;2022-12-10T11:28:36;2.40;99.90
254;DHT22;590;48.772;8.846;2022-12-10T11:31:18;2.30;99.90
254;DHT22;590;48.772;8.846;2022-12-10T11:33:54;2.30;99.90
254;DHT22;590;48.772;8.846;2022-12-10T11:36:33;2.40;99.90
254;DHT22;590;48.772;8.846;2022-12-10T11:39:14;2.30;99.90
254;DHT22;590;48.772;8.846;2022-12-10T11:41:48;2.30;99.90
254;DHT22;590;48.772;8.846;2022-12-10T11:44:25;2.20;99.90
254;DHT22;590;48.772;8.846;2022-12-10T11:47:14;2.30;99.90
254;DHT22;590;48.772;8.846;2022-12-10T11:49:54;2.20;99.90
254;DHT22;590;48.772;8.846;2022-12-10T11:52:38;2.20;99.90
254;DHT22;590;48.772;8.846;2022-12-10T11:55:17;2.20;99.90
254;DHT22;590;48.772;8.846;2022-12-10T11:57:52;2.20;99.90
254;DHT22;590;48.772;8.846;2022-12-10T12:00:25;2.20;99.90
254;DHT22;590;48.772;8.846;2022-12-10T12:03:20;2.20;99.90
254;DHT22;590;48.772;8.846;2022-12-10T12:06:04;2.20;99.90
254;DHT22;590;48.772;8.846;2022-12-10T12:08:42;2.20;99.90
254;DHT22;590;48.772;8.846;2022-12-10T12:11:23;2.10;99.90
254;DHT22;590;48.772;8.846;2022-12-10T12:13:59;2.10;99.90
254;DHT22;590;48.772;8.846;2022-12-10T12:16:34;2.10;99.90
254;DHT22;590;48.772;8.846;2022-12-10T12:19:08;2.10;99.90
254;DHT22;590;48.772;8.846;2022-12-10T12:21:38;2.10;99.90
254;DHT22;590;48.772;8.846;2022-12-10T12:24:14;2.10;99.90
254;DHT22;590;48.772;8.846;2022-12-10T12:26:48;2.00;99.90
254;DHT22;590;48.772;8.846;2022-12-10T12:29:23;1.90;99.90
254;DHT22;590;48.772;8.846;2022-12-10T12:31:57;1.90;99.90
254;DHT22;590;48.772;8.846;2022-12-10T12:34:36;1.90;99.90
254;DHT22;590;48.772;8.846;2022-12-10T12:37:07;1.90;99.90
254;DHT22;590;48.772;8.846;2022-12-10T12:39:41;1.90;99.90
254;DHT22;590;48.772;8.846;2022-12-10T12:42:19;2.00;99.90
254;DHT22;590;48.772;8.846;2022-12-10T12:44:59;2.00;99.90
254;DHT22;590;48.772;8.846;2022-12-10T12:47:36;2.10;99.90
254;DHT22;590;48.772;8.846;2022-12-10T12:50:14;2.10;99.90
254;DHT22;590;48.772;8.846;2022-12-10T12:52:50;2.10;99.90
254;DHT22;590;48.772;8.846;2022-12-10T12:55:22;2.20;99.90
254;DHT22;590;48.772;8.846;2022-12-10T12:57:56;2.20;99.90
254;DHT22;590;48.772;8.846;2022-12-10T13:00:30;2.20;99.90
254;DHT22;590;48.772;8.846;2022-12-10T13:03:12;2.30;99.90
254;DHT22;590;48.772;8.846;2022-12-10T13:05:46;2.30;99.90
254;DHT22;590;48.772;8.846;2022-12-10T13:08:29;2.30;99.90
254;DHT22;590;48.772;8.846;2022-12-10T13:11:00;2.30;99.90
254;DHT22;590;48.772;8.846;2022-12-10T13:13:32;2.30;99.90
254;DHT22;590;48.772;8.846;2022-12-10T13:16:36;2.30;99.90
254;DHT22;590;48.772;8.846;2022-12-10T13:19:24;2.30;99.90
254;DHT22;590;48.772;8.846;2022-12-10T13:21:58;2.30;99.90
254;DHT22;590;48.772;8.846;2022-12-10T13:24:45;2.30;99.90
254;DHT22;590;48.772;8.846;2022-12-10T13:27:19;2.30;99.90
254;DHT22;590;48.772;8.846;2022-12-10T13:29:56;2.30;99.90
254;DHT22;590;48.772;8.846;2022-12-10T13:32:43;2.20;99.90
254;DHT22;590;48.772;8.846;2022-12-10T13:35:27;2.20;99.90
254;DHT22;590;48.772;8.846;2022-12-10T13:37:59;2.20;99.90
254;DHT22;590;48.772;8.846;2022-12-10T13:40:39;2.20;99.90
254;DHT22;590;48.772;8.846;2022-12-10T13:43:36;2.20;99.90
254;DHT22;590;48.772;8.846;2022-12-10T13:46:28;2.20;99.90
254;DHT22;590;48.772;8.846;2022-12-10T13:49:00;2.10;99.90
254;DHT22;590;48.772;8.846;2022-12-10T13:51:43;2.10;99.90
254;DHT22;590;48.772;8.846;2022-12-10T13:58:00;2.00;99.90
254;DHT22;590;48.772;8.846;2022-12-10T14:00:36;2.10;99.90
254;DHT22;590;48.772;8.846;2022-12-10T14:03:29;2.10;99.90
254;DHT22;590;48.772;8.846;2022-12-10T14:06:21;2.20;99.90
254;DHT22;590;48.772;8.846;2022-12-10T14:08:59;2.10;99.90
254;DHT22;590;48.772;8.846;2022-12-10T14:11:30;2.10;99.90
254;DHT22;590;48.772;8.846;2022-12-10T14:14:05;2.10;99.90
254;DHT22;590;48.772;8.846;2022-12-10T14:16:35;2.00;99.90
254;DHT22;590;48.772;8.846;2022-12-10T14:19:05;2.00;99.90
254;DHT22;590;48.772;8.846;2022-12-10T14:21:37;2.00;99.90
254;DHT22;590;48.772;8.846;2022-12-10T14:24:11;1.90;99.90
254;DHT22;590;48.772;8.846;2022-12-10T14:26:57;1.90;99.90
254;DHT22;590;48.772;8.846;2022-12-10T14:29:25;1.90;99.90
254;DHT22;590;48.772;8.846;2022-12-10T14:31:55;1.90;99.90
254;DHT22;590;48.772;8.846;2022-12-10T14:34:26;1.80;99.90
254;DHT22;590;48.772;8.846;2022-12-10T14:37:00;1.80;99.90
254;DHT22;590;48.772;8.846;2022-12-10T14:39:31;1.70;99.90
254;DHT22;590;48.772;8.846;2022-12-10T14:42:02;1.70;99.90
254;DHT22;590;48.772;8.846;2022-12-10T14:44:32;1.70;99.90
254;DHT22;590;48.772;8.846;2022-12-10T14:47:06;1.70;99.90
254;DHT22;590;48.772;8.846;2022-12-10T14:49:38;1.70;99.90
254;DHT22;590;48.772;8.846;2022-12-10T14:52:14;1.70;99.90
254;DHT22;590;48.772;8.846;2022-12-10T14:54:43;1.70;99.90
254;DHT22;590;48.772;8.846;2022-12-10T14:57:16;1.70;99.90
254;DHT22;590;48.772;8.846;2022-12-10T14:59:47;1.70;99.90
254;DHT22;590;48.772;8.846;2022-12-10T15:02:20;1.60;99.90
254;DHT22;590;48.772;8.846;2022-12-10T15:04:50;1.60;99.90
254;DHT22;590;48.772;8.846;2022-12-10T15:07:23;1.50;99.90
254;DHT22;590;48.772;8.846;2022-12-10T15:09:53;1.50;99.90
254;DHT22;590;48.772;8.846;2022-12-10T15:12:29;1.50;99.90
254;DHT22;590;48.772;8.846;2022-12-10T15:15:05;1.50;99.90
254;DHT22;590;48.772;8.846;2022-12-10T15:17:40;1.40;99.90
254;DHT22;590;48.772;8.846;2022-12-10T15:20:20;1.50;99.90
254;DHT22;590;48.772;8.846;2022-12-10T15:22:50;1.40;99.90
254;DHT22;590;48.772;8.846;2022-12-10T15:25:24;1.40;99.90
254;DHT22;590;48.772;8.846;2022-12-10T15:27:56;1.40;99.90
254;DHT22;590;48.772;8.846;2022-12-10T15:30:34;1.40;99.90
254;DHT22;590;48.772;8.846;2022-12-10T15:33:03;1.40;99.90
254;DHT22;590;48.772;8.846;2022-12-10T15:35:35;1.40;99.90
254;DHT22;590;48.772;8.846;2022-12-10T15:38:05;1.30;99.90
254;DHT22;590;48.772;8.846;2022-12-10T15:40:33;1.30;99.90
254;DHT22;590;48.772;8.846;2022-12-10T15:43:12;1.20;99.90
254;DHT22;590;48.772;8.846;2022-12-10T15:45:42;1.20;99.90
254;DHT22;590;48.772;8.846;2022-12-10T15:48:11;1.10;99.90
254;DHT22;590;48.772;8.846;2022-12-10T15:50:42;1.10;99.90
254;DHT22;590;48.772;8.846;2022-12-10T15:53:14;1.10;99.90
254;DHT22;590;48.772;8.846;2022-12-10T15:55:44;1.10;99.90
254;DHT22;590;48.772;8.846;2022-12-10T15:58:13;1.10;99.90
254;DHT22;590;48.772;8.846;2022-12-10T16:00:42;1.10;99.90
254;DHT22;590;48.772;8.846;2022-12-10T16:03:15;1.10;99.90
254;DHT22;590;48.772;8.846;2022-12-10T16:05:44;1.10;99.90
254;DHT22;590;48.772;8.846;2022-12-10T16:08:18;1.10;99.90
254;DHT22;590;48.772;8.846;2022-12-10T16:10:47;1.10;99.90
254;DHT22;590;48.772;8.846;2022-12-10T16:13:19;1.10;99.90
254;DHT22;590;48.772;8.846;2022-12-10T16:15:51;1.10;99.90
254;DHT22;590;48.772;8.846;2022-12-10T16:18:20;1.00;99.90
254;DHT22;590;48.772;8.846;2022-12-10T16:20:48;1.00;99.90
254;DHT22;590;48.772;8.846;2022-12-10T16:23:17;1.00;99.90
254;DHT22;590;48.772;8.846;2022-12-10T16:25:45;1.00;99.90
254;DHT22;590;48.772;8.846;2022-12-10T16:28:17;1.00;99.90
254;DHT22;590;48.772;8.846;2022-12-10T16:30:46;1.00;99.90
254;DHT22;590;48.772;8.846;2022-12-10T16:33:16;1.10;99.90
254;DHT22;590;48.772;8.846;2022-12-10T16:35:45;1.00;99.90
254;DHT22;590;48.772;8.846;2022-12-10T16:38:13;1.10;99.90
254;DHT22;590;48.772;8.846;2022-12-10T16:40:44;1.00;99.90
254;DHT22;590;48.772;8.846;2022-12-10T16:43:14;1.10;99.90
254;DHT22;590;48.772;8.846;2022-12-10T16:45:43;1.00;99.90
254;DHT22;590;48.772;8.846;2022-12-10T16:48:11;1.00;99.90
254;DHT22;590;48.772;8.846;2022-12-10T16:50:40;1.10;99.90
254;DHT22;590;48.772;8.846;2022-12-10T16:53:15;1.10;99.90
254;DHT22;590;48.772;8.846;2022-12-10T16:55:45;1.00;99.90
254;DHT22;590;48.772;8.846;2022-12-10T16:58:15;1.10;99.90
254;DHT22;590;48.772;8.846;2022-12-10T17:00:44;1.10;99.90
254;DHT22;590;48.772;8.846;2022-12-10T17:03:14;1.00;99.90
254;DHT22;590;48.772;8.846;2022-12-10T17:05:52;1.00;99.90
254;DHT22;590;48.772;8.846;2022-12-10T17:08:22;1.00;99.90
254;DHT22;590;48.772;8.846;2022-12-10T17:10:52;1.00;99.90
254;DHT22;590;48.772;8.846;2022-12-10T17:13:39;1.00;99.90
254;DHT22;590;48.772;8.846;2022-12-10T17:16:10;1.00;99.90
254;DHT22;590;48.772;8.846;2022-12-10T17:18:40;1.00;99.90
254;DHT22;590;48.772;8.846;2022-12-10T17:21:08;1.00;99.90
254;DHT22;590;48.772;8.846;2022-12-10T17:23:36;1.00;99.90
254;DHT22;590;48.772;8.846;2022-12-10T17:26:06;1.00;99.90
254;DHT22;590;48.772;8.846;2022-12-10T17:28:34;1.00;99.90